sensor_id;sensor_type;location;lat;lon;timestamp;temperature;humidity
29413;DHT22;16389;50.126;8.450;2023-02-28T00:00:17;1.70;99.90
29413;DHT22;16389;50.126;8.450;2023-02-28T00:02:44;1.80;99.90
29413;DHT22;16389;50.126;8.450;2023-02-28T00:05:12;1.60;99.90
29413;DHT22;16389;50.126;8.450;2023-02-28T00:07:39;1.60;99.90
29413;DHT22;16389;50.126;8.450;2023-02-28T00:10:07;1.50;99.90
29413;DHT22;16389;50.126;8.450;2023-02-28T00:12:34;1.40;99.90
29413;DHT22;16389;50.126;8.450;2023-02-28T00:15:00;1.40;99.90
29413;DHT22;16389;50.126;8.450;2023-02-28T00:17:25;1.40;99.90
29413;DHT22;16389;50.126;8.450;2023-02-28T00:19:51;1.40;99.90
29413;DHT22;16389;50.126;8.450;2023-02-28T00:22:19;1.30;99.90
29413;DHT22;16389;50.126;8.450;2023-02-28T00:24:45;1.30;99.90
29413;DHT22;16389;50.126;8.450;2023-02-28T00:27:11;1.30;99.90
29413;DHT22;16389;50.126;8.450;2023-02-28T00:29:37;1.20;99.90
29413;DHT22;16389;50.126;8.450;2023-02-28T00:32:04;1.10;99.90
29413;DHT22;16389;50.126;8.450;2023-02-28T00:34:30;1.00;99.90
29413;DHT22;16389;50.126;8.450;2023-02-28T00:36:55;1.00;99.90
29413;DHT22;16389;50.126;8.450;2023-02-28T00:39:21;1.00;99.90
29413;DHT22;16389;50.126;8.450;2023-02-28T00:41:47;1.00;99.90
29413;DHT22;16389;50.126;8.450;2023-02-28T00:44:12;1.00;99.90
29413;DHT22;16389;50.126;8.450;2023-02-28T00:46:38;0.90;99.90
29413;DHT22;16389;50.126;8.450;2023-02-28T00:49:04;0.90;99.90
29413;DHT22;16389;50.126;8.450;2023-02-28T00:51:29;0.90;99.90
29413;DHT22;16389;50.126;8.450;2023-02-28T00:53:55;0.90;99.90
29413;DHT22;16389;50.126;8.450;2023-02-28T00:56:21;0.80;99.90
29413;DHT22;16389;50.126;8.450;2023-02-28T00:58:46;0.80;99.90
29413;DHT22;16389;50.126;8.450;2023-02-28T01:01:12;0.80;99.90
29413;DHT22;16389;50.126;8.450;2023-02-28T01:03:38;0.80;99.90
29413;DHT22;16389;50.126;8.450;2023-02-28T01:06:04;0.70;99.90
29413;DHT22;16389;50.126;8.450;2023-02-28T01:08:30;0.80;99.90
29413;DHT22;16389;50.126;8.450;2023-02-28T01:10:56;0.80;99.90
29413;DHT22;16389;50.126;8.450;2023-02-28T01:13:22;0.70;99.90
29413;DHT22;16389;50.126;8.450;2023-02-28T01:15:54;0.70;99.90
29413;DHT22;16389;50.126;8.450;2023-02-28T01:18:20;0.60;99.90
29413;DHT22;16389;50.126;8.450;2023-02-28T01:20:47;0.60;99.90
29413;DHT22;16389;50.126;8.450;2023-02-28T01:23:13;0.60;99.90
29413;DHT22;16389;50.126;8.450;2023-02-28T01:25:39;0.60;99.90
29413;DHT22;16389;50.126;8.450;2023-02-28T01:28:05;0.60;99.90
29413;DHT22;16389;50.126;8.450;2023-02-28T01:30:31;0.70;99.90
29413;DHT22;16389;50.126;8.450;2023-02-28T01:32:57;0.70;99.90
29413;DHT22;16389;50.126;8.450;2023-02-28T01:35:22;0.60;99.90
29413;DHT22;16389;50.126;8.450;2023-02-28T01:37:48;0.60;99.90
29413;DHT22;16389;50.126;8.450;2023-02-28T01:40:14;0.50;99.90
29413;DHT22;16389;50.126;8.450;2023-02-28T01:42:39;0.50;99.90
29413;DHT22;16389;50.126;8.450;2023-02-28T01:45:29;0.60;99.90
29413;DHT22;16389;50.126;8.450;2023-02-28T01:47:59;0.60;99.90
29413;DHT22;16389;50.126;8.450;2023-02-28T01:50:26;0.50;99.90
29413;DHT22;16389;50.126;8.450;2023-02-28T01:52:56;0.50;99.90
29413;DHT22;16389;50.126;8.450;2023-02-28T01:55:24;0.50;99.90
29413;DHT22;16389;50.126;8.450;2023-02-28T01:57:56;0.40;99.90
29413;DHT22;16389;50.126;8.450;2023-02-28T02:00:24;0.40;99.90
29413;DHT22;16389;50.126;8.450;2023-02-28T02:02:55;0.50;99.90
29413;DHT22;16389;50.126;8.450;2023-02-28T02:05:28;0.40;99.90
29413;DHT22;16389;50.126;8.450;2023-02-28T02:07:58;0.40;99.90
29413;DHT22;16389;50.126;8.450;2023-02-28T02:10:44;0.40;99.90
29413;DHT22;16389;50.126;8.450;2023-02-28T02:25:04;0.30;99.90
29413;DHT22;16389;50.126;8.450;2023-02-28T02:28:15;0.30;99.90
29413;DHT22;16389;50.126;8.450;2023-02-28T02:31:00;0.20;99.90
29413;DHT22;16389;50.126;8.450;2023-02-28T02:33:42;0.20;99.90
29413;DHT22;16389;50.126;8.450;2023-02-28T02:36:13;0.20;99.90
29413;DHT22;16389;50.126;8.450;2023-02-28T02:38:52;0.20;99.90
29413;DHT22;16389;50.126;8.450;2023-02-28T02:41:38;0.20;99.90
29413;DHT22;16389;50.126;8.450;2023-02-28T02:44:07;0.20;99.90
29413;DHT22;16389;50.126;8.450;2023-02-28T02:46:40;0.10;99.90
29413;DHT22;16389;50.126;8.450;2023-02-28T02:49:10;0.20;99.90
29413;DHT22;16389;50.126;8.450;2023-02-28T02:51:39;0.10;99.90
29413;DHT22;16389;50.126;8.450;2023-02-28T02:54:11;0.10;99.90
29413;DHT22;16389;50.126;8.450;2023-02-28T02:56:41;0.10;99.90
29413;DHT22;16389;50.126;8.450;2023-02-28T02:59:12;0.00;99.90
29413;DHT22;16389;50.126;8.450;2023-02-28T03:01:40;0.00;99.90
29413;DHT22;16389;50.126;8.450;2023-02-28T03:04:13;0.10;99.90
29413;DHT22;16389;50.126;8.450;2023-02-28T03:06:39;0.00;99.90
29413;DHT22;16389;50.126;8.450;2023-02-28T03:09:05;0.00;99.90
29413;DHT22;16389;50.126;8.450;2023-02-28T03:11:31;0.10;99.90
29413;DHT22;16389;50.126;8.450;2023-02-28T03:22:47;0.00;99.90
29413;DHT22;16389;50.126;8.450;2023-02-28T03:28:18;-0.10;99.90
29413;DHT22;16389;50.126;8.450;2023-02-28T03:30:54;0.00;99.90
29413;DHT22;16389;50.126;8.450;2023-02-28T03:33:45;0.00;99.90
29413;DHT22;16389;50.126;8.450;2023-02-28T03:36:24;0.00;99.90
29413;DHT22;16389;50.126;8.450;2023-02-28T03:38:58;-0.10;99.90
29413;DHT22;16389;50.126;8.450;2023-02-28T03:44:11;0.00;99.90
29413;DHT22;16389;50.126;8.450;2023-02-28T03:46:45;-0.10;99.90
29413;DHT22;16389;50.126;8.450;2023-02-28T03:49:20;-0.10;99.90
29413;DHT22;16389;50.126;8.450;2023-02-28T03:51:49;-0.10;99.90
29413;DHT22;16389;50.126;8.450;2023-02-28T03:54:19;-0.10;99.90
29413;DHT22;16389;50.126;8.450;2023-02-28T03:59:48;-0.20;99.90
29413;DHT22;16389;50.126;8.450;2023-02-28T04:02:18;-0.30;99.90
29413;DHT22;16389;50.126;8.450;2023-02-28T04:04:43;-0.20;99.90
29413;DHT22;16389;50.126;8.450;2023-02-28T04:07:13;-0.30;99.90
29413;DHT22;16389;50.126;8.450;2023-02-28T04:09:39;-0.20;99.90
29413;DHT22;16389;50.126;8.450;2023-02-28T04:12:05;-0.30;99.90
29413;DHT22;16389;50.126;8.450;2023-02-28T04:14:30;-0.30;99.90
29413;DHT22;16389;50.126;8.450;2023-02-28T04:16:56;-0.30;99.90
29413;DHT22;16389;50.126;8.450;2023-02-28T04:19:22;-0.30;99.90
29413;DHT22;16389;50.126;8.450;2023-02-28T04:21:49;-0.30;99.90
29413;DHT22;16389;50.126;8.450;2023-02-28T04:24:26;-0.20;99.90
29413;DHT22;16389;50.126;8.450;2023-02-28T04:26:53;-0.30;99.90
29413;DHT22;16389;50.126;8.450;2023-02-28T04:29:28;-0.20;99.90
29413;DHT22;16389;50.126;8.450;2023-02-28T04:31:55;-0.20;99.90
29413;DHT22;16389;50.126;8.450;2023-02-28T04:34:25;-0.20;99.90
29413;DHT22;16389;50.126;8.450;2023-02-28T04:36:51;-0.20;99.90
29413;DHT22;16389;50.126;8.450;2023-02-28T04:39:20;-0.20;99.90
29413;DHT22;16389;50.126;8.450;2023-02-28T04:41:46;-0.30;99.90
29413;DHT22;16389;50.126;8.450;2023-02-28T04:44:11;-0.30;99.90
29413;DHT22;16389;50.126;8.450;2023-02-28T04:46:37;-0.30;99.90
29413;DHT22;16389;50.126;8.450;2023-02-28T04:49:03;-0.30;99.90
29413;DHT22;16389;50.126;8.450;2023-02-28T04:51:28;-0.30;99.90
29413;DHT22;16389;50.126;8.450;2023-02-28T04:53:54;-0.30;99.90
29413;DHT22;16389;50.126;8.450;2023-02-28T04:56:20;-0.30;99.90
29413;DHT22;16389;50.126;8.450;2023-02-28T04:58:46;-0.30;99.90
29413;DHT22;16389;50.126;8.450;2023-02-28T05:01:30;-0.30;99.90
29413;DHT22;16389;50.126;8.450;2023-02-28T05:03:57;-0.30;99.90
29413;DHT22;16389;50.126;8.450;2023-02-28T05:06:26;-0.20;99.90
29413;DHT22;16389;50.126;8.450;2023-02-28T05:08:52;-0.30;99.90
29413;DHT22;16389;50.126;8.450;2023-02-28T05:11:26;-0.20;99.90
29413;DHT22;16389;50.126;8.450;2023-02-28T05:13:53;-0.20;99.90
29413;DHT22;16389;50.126;8.450;2023-02-28T05:16:19;-0.20;99.90
29413;DHT22;16389;50.126;8.450;2023-02-28T05:18:45;-0.20;99.90
29413;DHT22;16389;50.126;8.450;2023-02-28T05:21:28;-0.10;99.90
29413;DHT22;16389;50.126;8.450;2023-02-28T05:23:54;0.00;99.90
29413;DHT22;16389;50.126;8.450;2023-02-28T05:26:20;0.00;99.90
29413;DHT22;16389;50.126;8.450;2023-02-28T05:28:46;0.10;99.90
29413;DHT22;16389;50.126;8.450;2023-02-28T05:31:12;0.20;99.90
29413;DHT22;16389;50.126;8.450;2023-02-28T05:33:37;0.30;99.90
29413;DHT22;16389;50.126;8.450;2023-02-28T05:36:03;0.20;99.90
29413;DHT22;16389;50.126;8.450;2023-02-28T05:38:29;0.30;99.90
29413;DHT22;16389;50.126;8.450;2023-02-28T05:40:55;0.40;99.90
29413;DHT22;16389;50.126;8.450;2023-02-28T05:43:21;0.40;99.90
29413;DHT22;16389;50.126;8.450;2023-02-28T05:45:47;0.40;99.90
29413;DHT22;16389;50.126;8.450;2023-02-28T05:48:13;0.50;99.90
29413;DHT22;16389;50.126;8.450;2023-02-28T05:50:38;0.40;99.90
29413;DHT22;16389;50.126;8.450;2023-02-28T05:53:04;0.50;99.90
29413;DHT22;16389;50.126;8.450;2023-02-28T05:55:29;0.40;99.90
29413;DHT22;16389;50.126;8.450;2023-02-28T05:57:55;0.40;99.90
29413;DHT22;16389;50.126;8.450;2023-02-28T06:00:21;0.40;99.90
29413;DHT22;16389;50.126;8.450;2023-02-28T06:02:47;0.40;99.90
29413;DHT22;16389;50.126;8.450;2023-02-28T06:05:17;0.40;99.90
29413;DHT22;16389;50.126;8.450;2023-02-28T06:07:44;0.50;99.90
29413;DHT22;16389;50.126;8.450;2023-02-28T06:10:10;0.40;99.90
29413;DHT22;16389;50.126;8.450;2023-02-28T06:12:37;0.40;99.90
29413;DHT22;16389;50.126;8.450;2023-02-28T06:15:03;0.40;99.90
29413;DHT22;16389;50.126;8.450;2023-02-28T06:17:29;0.30;99.90
29413;DHT22;16389;50.126;8.450;2023-02-28T06:19:55;0.30;99.90
29413;DHT22;16389;50.126;8.450;2023-02-28T06:22:21;0.20;99.90
29413;DHT22;16389;50.126;8.450;2023-02-28T06:24:46;0.20;99.90
29413;DHT22;16389;50.126;8.450;2023-02-28T06:27:12;0.10;99.90
29413;DHT22;16389;50.126;8.450;2023-02-28T06:29:37;0.10;99.90
29413;DHT22;16389;50.126;8.450;2023-02-28T06:32:05;0.00;99.90
29413;DHT22;16389;50.126;8.450;2023-02-28T06:34:31;0.00;99.90
29413;DHT22;16389;50.126;8.450;2023-02-28T06:37:00;0.00;99.90
29413;DHT22;16389;50.126;8.450;2023-02-28T06:39:29;-0.10;99.90
29413;DHT22;16389;50.126;8.450;2023-02-28T06:41:54;-0.10;99.90
29413;DHT22;16389;50.126;8.450;2023-02-28T06:44:20;-0.10;99.90
29413;DHT22;16389;50.126;8.450;2023-02-28T06:46:46;0.00;99.90
29413;DHT22;16389;50.126;8.450;2023-02-28T06:49:13;0.10;99.90
29413;DHT22;16389;50.126;8.450;2023-02-28T06:51:41;0.10;99.90
29413;DHT22;16389;50.126;8.450;2023-02-28T06:54:09;0.10;99.90
29413;DHT22;16389;50.126;8.450;2023-02-28T06:56:35;0.20;99.90
29413;DHT22;16389;50.126;8.450;2023-02-28T06:59:01;0.30;99.90
29413;DHT22;16389;50.126;8.450;2023-02-28T07:01:27;0.30;99.90
29413;DHT22;16389;50.126;8.450;2023-02-28T07:03:53;0.30;99.90
29413;DHT22;16389;50.126;8.450;2023-02-28T07:06:23;0.40;99.90
29413;DHT22;16389;50.126;8.450;2023-02-28T07:08:50;0.50;99.90
29413;DHT22;16389;50.126;8.450;2023-02-28T07:11:17;0.70;99.90
29413;DHT22;16389;50.126;8.450;2023-02-28T07:13:43;0.70;99.90
29413;DHT22;16389;50.126;8.450;2023-02-28T07:16:10;0.70;99.90
29413;DHT22;16389;50.126;8.450;2023-02-28T07:18:37;0.80;99.90
29413;DHT22;16389;50.126;8.450;2023-02-28T07:21:08;1.00;99.90
29413;DHT22;16389;50.126;8.450;2023-02-28T07:23:34;1.20;99.90
29413;DHT22;16389;50.126;8.450;2023-02-28T07:26:00;1.20;99.90
29413;DHT22;16389;50.126;8.450;2023-02-28T07:28:26;1.20;99.90
29413;DHT22;16389;50.126;8.450;2023-02-28T07:30:51;1.30;99.90
29413;DHT22;16389;50.126;8.450;2023-02-28T07:33:17;1.40;99.90
29413;DHT22;16389;50.126;8.450;2023-02-28T07:35:43;1.60;99.90
29413;DHT22;16389;50.126;8.450;2023-02-28T07:38:09;1.60;99.90
29413;DHT22;16389;50.126;8.450;2023-02-28T07:40:35;1.80;99.90
29413;DHT22;16389;50.126;8.450;2023-02-28T07:43:02;1.70;99.90
29413;DHT22;16389;50.126;8.450;2023-02-28T07:45:28;1.80;99.90
29413;DHT22;16389;50.126;8.450;2023-02-28T07:47:54;1.80;99.90
29413;DHT22;16389;50.126;8.450;2023-02-28T07:50:20;1.90;99.90
29413;DHT22;16389;50.126;8.450;2023-02-28T07:52:46;1.90;99.90
29413;DHT22;16389;50.126;8.450;2023-02-28T07:55:13;2.10;99.90
29413;DHT22;16389;50.126;8.450;2023-02-28T07:57:40;2.10;99.90
29413;DHT22;16389;50.126;8.450;2023-02-28T08:00:10;2.20;99.90
29413;DHT22;16389;50.126;8.450;2023-02-28T08:02:36;2.20;99.90
29413;DHT22;16389;50.126;8.450;2023-02-28T08:05:02;2.20;99.90
29413;DHT22;16389;50.126;8.450;2023-02-28T08:07:27;2.30;99.90
29413;DHT22;16389;50.126;8.450;2023-02-28T08:09:53;2.40;99.90
29413;DHT22;16389;50.126;8.450;2023-02-28T08:12:19;2.50;99.90
29413;DHT22;16389;50.126;8.450;2023-02-28T08:14:45;2.60;99.90
29413;DHT22;16389;50.126;8.450;2023-02-28T08:17:11;2.70;99.90
29413;DHT22;16389;50.126;8.450;2023-02-28T08:19:36;2.80;99.90
29413;DHT22;16389;50.126;8.450;2023-02-28T08:22:02;2.90;99.90
29413;DHT22;16389;50.126;8.450;2023-02-28T08:24:28;3.00;99.90
29413;DHT22;16389;50.126;8.450;2023-02-28T08:26:54;3.20;99.90
29413;DHT22;16389;50.126;8.450;2023-02-28T08:29:20;3.30;99.90
29413;DHT22;16389;50.126;8.450;2023-02-28T08:31:45;3.30;99.90
29413;DHT22;16389;50.126;8.450;2023-02-28T08:34:13;3.30;99.90
29413;DHT22;16389;50.126;8.450;2023-02-28T08:36:39;3.30;99.90
29413;DHT22;16389;50.126;8.450;2023-02-28T08:39:06;3.40;99.90
29413;DHT22;16389;50.126;8.450;2023-02-28T08:41:33;3.40;99.90
29413;DHT22;16389;50.126;8.450;2023-02-28T08:43:59;3.50;99.90
29413;DHT22;16389;50.126;8.450;2023-02-28T08:46:25;3.50;99.90
29413;DHT22;16389;50.126;8.450;2023-02-28T08:48:52;3.50;99.90
29413;DHT22;16389;50.126;8.450;2023-02-28T08:51:18;3.50;99.90
29413;DHT22;16389;50.126;8.450;2023-02-28T08:53:47;3.70;99.90
29413;DHT22;16389;50.126;8.450;2023-02-28T08:56:15;3.90;99.90
29413;DHT22;16389;50.126;8.450;2023-02-28T08:58:42;4.00;99.90
29413;DHT22;16389;50.126;8.450;2023-02-28T09:01:14;4.10;99.90
29413;DHT22;16389;50.126;8.450;2023-02-28T09:03:41;4.20;99.90
29413;DHT22;16389;50.126;8.450;2023-02-28T09:06:08;4.30;99.90
29413;DHT22;16389;50.126;8.450;2023-02-28T09:08:34;4.30;99.90
29413;DHT22;16389;50.126;8.450;2023-02-28T09:11:00;4.30;99.90
29413;DHT22;16389;50.126;8.450;2023-02-28T09:13:27;4.30;99.90
29413;DHT22;16389;50.126;8.450;2023-02-28T09:15:54;4.40;99.90
29413;DHT22;16389;50.126;8.450;2023-02-28T09:18:20;4.40;99.00
29413;DHT22;16389;50.126;8.450;2023-02-28T09:20:46;4.50;98.90
29413;DHT22;16389;50.126;8.450;2023-02-28T09:23:12;4.50;98.00
29413;DHT22;16389;50.126;8.450;2023-02-28T09:25:44;4.50;97.70
29413;DHT22;16389;50.126;8.450;2023-02-28T09:28:10;4.70;97.70
29413;DHT22;16389;50.126;8.450;2023-02-28T09:30:36;4.70;97.80
29413;DHT22;16389;50.126;8.450;2023-02-28T09:33:02;4.80;98.20
29413;DHT22;16389;50.126;8.450;2023-02-28T09:35:28;5.00;96.50
29413;DHT22;16389;50.126;8.450;2023-02-28T09:37:56;5.00;97.00
29413;DHT22;16389;50.126;8.450;2023-02-28T09:40:24;5.20;96.80
29413;DHT22;16389;50.126;8.450;2023-02-28T09:42:52;5.30;95.90
29413;DHT22;16389;50.126;8.450;2023-02-28T09:45:26;5.20;95.00
29413;DHT22;16389;50.126;8.450;2023-02-28T09:47:58;5.40;95.40
29413;DHT22;16389;50.126;8.450;2023-02-28T09:50:46;5.50;95.40
29413;DHT22;16389;50.126;8.450;2023-02-28T09:53:26;5.60;95.20
29413;DHT22;16389;50.126;8.450;2023-02-28T09:58:34;5.50;94.80
29413;DHT22;16389;50.126;8.450;2023-02-28T10:01:31;5.50;94.50
29413;DHT22;16389;50.126;8.450;2023-02-28T10:06:48;5.80;94.10
29413;DHT22;16389;50.126;8.450;2023-02-28T10:09:27;5.90;93.50
29413;DHT22;16389;50.126;8.450;2023-02-28T10:12:01;6.10;93.20
29413;DHT22;16389;50.126;8.450;2023-02-28T10:14:30;6.10;92.70
29413;DHT22;16389;50.126;8.450;2023-02-28T10:17:10;6.30;92.80
29413;DHT22;16389;50.126;8.450;2023-02-28T10:19:51;6.60;92.30
29413;DHT22;16389;50.126;8.450;2023-02-28T10:24:54;6.50;91.80
29413;DHT22;16389;50.126;8.450;2023-02-28T10:27:31;6.40;92.00
29413;DHT22;16389;50.126;8.450;2023-02-28T10:30:00;6.60;91.30
29413;DHT22;16389;50.126;8.450;2023-02-28T10:32:31;6.50;91.40
29413;DHT22;16389;50.126;8.450;2023-02-28T10:35:10;6.40;91.30
29413;DHT22;16389;50.126;8.450;2023-02-28T10:37:43;6.20;91.20
29413;DHT22;16389;50.126;8.450;2023-02-28T10:45:28;6.50;91.80
29413;DHT22;16389;50.126;8.450;2023-02-28T10:48:26;6.70;91.40
29413;DHT22;16389;50.126;8.450;2023-02-28T10:50:54;6.70;91.20
29413;DHT22;16389;50.126;8.450;2023-02-28T10:53:31;6.50;91.30
29413;DHT22;16389;50.126;8.450;2023-02-28T11:01:39;6.50;91.10
29413;DHT22;16389;50.126;8.450;2023-02-28T11:07:03;6.60;90.90
29413;DHT22;16389;50.126;8.450;2023-02-28T11:09:36;6.60;91.20
29413;DHT22;16389;50.126;8.450;2023-02-28T11:12:08;6.50;91.00
29413;DHT22;16389;50.126;8.450;2023-02-28T11:14:52;6.50;90.70
29413;DHT22;16389;50.126;8.450;2023-02-28T11:17:30;6.50;90.50
29413;DHT22;16389;50.126;8.450;2023-02-28T11:19:59;7.50;90.30
29413;DHT22;16389;50.126;8.450;2023-02-28T11:22:31;7.70;88.20
29413;DHT22;16389;50.126;8.450;2023-02-28T11:25:02;7.80;87.90
29413;DHT22;16389;50.126;8.450;2023-02-28T11:29:59;8.00;86.90
29413;DHT22;16389;50.126;8.450;2023-02-28T11:32:29;8.00;85.40
29413;DHT22;16389;50.126;8.450;2023-02-28T11:37:37;8.10;83.70
29413;DHT22;16389;50.126;8.450;2023-02-28T11:40:14;9.10;83.70
29413;DHT22;16389;50.126;8.450;2023-02-28T11:45:44;10.10;78.60
29413;DHT22;16389;50.126;8.450;2023-02-28T11:48:38;10.90;77.60
29413;DHT22;16389;50.126;8.450;2023-02-28T11:56:15;10.80;72.20
29413;DHT22;16389;50.126;8.450;2023-02-28T12:01:28;10.30;73.20
29413;DHT22;16389;50.126;8.450;2023-02-28T12:04:42;11.60;72.60
29413;DHT22;16389;50.126;8.450;2023-02-28T12:11:04;12.20;66.20
29413;DHT22;16389;50.126;8.450;2023-02-28T12:13:24;12.90;66.50
29413;DHT22;16389;50.126;8.450;2023-02-28T12:21:27;13.20;65.50
29413;DHT22;16389;50.126;8.450;2023-02-28T12:24:14;13.50;64.10
29413;DHT22;16389;50.126;8.450;2023-02-28T12:26:45;13.70;62.20
29413;DHT22;16389;50.126;8.450;2023-02-28T12:29:28;13.60;61.50
29413;DHT22;16389;50.126;8.450;2023-02-28T12:32:09;13.00;62.10
29413;DHT22;16389;50.126;8.450;2023-02-28T12:37:46;12.20;64.40
29413;DHT22;16389;50.126;8.450;2023-02-28T12:40:41;11.20;65.40
29413;DHT22;16389;50.126;8.450;2023-02-28T12:43:09;9.90;67.10
29413;DHT22;16389;50.126;8.450;2023-02-28T12:45:51;9.10;70.00
29413;DHT22;16389;50.126;8.450;2023-02-28T12:48:29;8.40;73.50
29413;DHT22;16389;50.126;8.450;2023-02-28T12:50:56;7.90;75.00
29413;DHT22;16389;50.126;8.450;2023-02-28T12:58:58;7.20;77.20
29413;DHT22;16389;50.126;8.450;2023-02-28T13:09:56;6.40;80.10
29413;DHT22;16389;50.126;8.450;2023-02-28T13:12:22;6.20;80.80
29413;DHT22;16389;50.126;8.450;2023-02-28T13:14:49;6.10;80.60
29413;DHT22;16389;50.126;8.450;2023-02-28T13:17:19;6.00;81.20
29413;DHT22;16389;50.126;8.450;2023-02-28T13:26:05;5.80;82.40
29413;DHT22;16389;50.126;8.450;2023-02-28T13:31:16;5.80;83.20
29413;DHT22;16389;50.126;8.450;2023-02-28T13:38:48;5.90;84.40
29413;DHT22;16389;50.126;8.450;2023-02-28T13:46:25;5.80;86.00
29413;DHT22;16389;50.126;8.450;2023-02-28T13:48:51;5.90;84.70
29413;DHT22;16389;50.126;8.450;2023-02-28T13:51:44;5.80;84.40
29413;DHT22;16389;50.126;8.450;2023-02-28T13:54:26;5.70;85.00
29413;DHT22;16389;50.126;8.450;2023-02-28T14:00:20;5.70;86.60
29413;DHT22;16389;50.126;8.450;2023-02-28T14:06:18;5.80;85.90
29413;DHT22;16389;50.126;8.450;2023-02-28T14:08:57;5.80;86.30
29413;DHT22;16389;50.126;8.450;2023-02-28T14:11:32;5.80;86.10
29413;DHT22;16389;50.126;8.450;2023-02-28T14:13:59;5.70;85.60
29413;DHT22;16389;50.126;8.450;2023-02-28T14:16:27;5.70;85.50
29413;DHT22;16389;50.126;8.450;2023-02-28T14:18:58;5.60;85.80
29413;DHT22;16389;50.126;8.450;2023-02-28T14:21:33;5.50;85.60
29413;DHT22;16389;50.126;8.450;2023-02-28T14:26:52;5.50;86.00
29413;DHT22;16389;50.126;8.450;2023-02-28T14:38:29;5.30;87.80
29413;DHT22;16389;50.126;8.450;2023-02-28T14:40:58;5.30;88.80
29413;DHT22;16389;50.126;8.450;2023-02-28T14:43:27;5.40;88.40
29413;DHT22;16389;50.126;8.450;2023-02-28T14:46:01;5.40;88.30
29413;DHT22;16389;50.126;8.450;2023-02-28T14:48:27;5.40;88.50
29413;DHT22;16389;50.126;8.450;2023-02-28T14:50:58;5.50;88.90
29413;DHT22;16389;50.126;8.450;2023-02-28T14:53:30;5.50;89.00
29413;DHT22;16389;50.126;8.450;2023-02-28T14:55:56;5.50;88.90
29413;DHT22;16389;50.126;8.450;2023-02-28T14:58:26;5.50;89.50
29413;DHT22;16389;50.126;8.450;2023-02-28T15:00:55;5.60;89.60
29413;DHT22;16389;50.126;8.450;2023-02-28T15:03:37;5.50;90.00
29413;DHT22;16389;50.126;8.450;2023-02-28T15:06:04;5.60;89.90
29413;DHT22;16389;50.126;8.450;2023-02-28T15:08:30;5.70;89.80
29413;DHT22;16389;50.126;8.450;2023-02-28T15:11:04;5.80;88.80
29413;DHT22;16389;50.126;8.450;2023-02-28T15:16:14;5.80;89.30
29413;DHT22;16389;50.126;8.450;2023-02-28T15:21:16;5.90;87.80
29413;DHT22;16389;50.126;8.450;2023-02-28T15:23:46;6.00;88.50
29413;DHT22;16389;50.126;8.450;2023-02-28T15:26:19;6.10;88.30
29413;DHT22;16389;50.126;8.450;2023-02-28T15:28:46;6.30;88.10
29413;DHT22;16389;50.126;8.450;2023-02-28T15:31:23;6.40;88.00
29413;DHT22;16389;50.126;8.450;2023-02-28T15:33:56;6.50;87.30
29413;DHT22;16389;50.126;8.450;2023-02-28T15:36:26;6.70;87.10
29413;DHT22;16389;50.126;8.450;2023-02-28T15:38:53;7.30;86.50
29413;DHT22;16389;50.126;8.450;2023-02-28T15:41:37;8.20;84.40
29413;DHT22;16389;50.126;8.450;2023-02-28T15:47:11;9.10;80.60
29413;DHT22;16389;50.126;8.450;2023-02-28T15:49:46;8.70;79.20
29413;DHT22;16389;50.126;8.450;2023-02-28T15:52:42;8.20;80.60
29413;DHT22;16389;50.126;8.450;2023-02-28T15:55:26;7.40;82.70
29413;DHT22;16389;50.126;8.450;2023-02-28T15:57:57;6.90;83.60
29413;DHT22;16389;50.126;8.450;2023-02-28T16:00:28;6.40;86.30
29413;DHT22;16389;50.126;8.450;2023-02-28T16:02:54;6.10;87.50
29413;DHT22;16389;50.126;8.450;2023-02-28T16:05:23;5.90;88.40
29413;DHT22;16389;50.126;8.450;2023-02-28T16:07:54;5.70;88.90
29413;DHT22;16389;50.126;8.450;2023-02-28T16:10:21;5.50;89.90
29413;DHT22;16389;50.126;8.450;2023-02-28T16:12:50;5.30;90.20
29413;DHT22;16389;50.126;8.450;2023-02-28T16:15:23;5.20;90.50
29413;DHT22;16389;50.126;8.450;2023-02-28T16:17:51;5.20;90.80
29413;DHT22;16389;50.126;8.450;2023-02-28T16:20:20;5.10;90.80
29413;DHT22;16389;50.126;8.450;2023-02-28T16:22:46;5.10;91.20
29413;DHT22;16389;50.126;8.450;2023-02-28T16:25:14;5.10;91.30
29413;DHT22;16389;50.126;8.450;2023-02-28T16:27:40;5.00;91.40
29413;DHT22;16389;50.126;8.450;2023-02-28T16:30:07;5.00;91.50
29413;DHT22;16389;50.126;8.450;2023-02-28T16:32:39;4.90;91.80
29413;DHT22;16389;50.126;8.450;2023-02-28T16:35:09;4.80;91.70
29413;DHT22;16389;50.126;8.450;2023-02-28T16:37:34;4.70;91.80
29413;DHT22;16389;50.126;8.450;2023-02-28T16:40:00;4.70;92.00
29413;DHT22;16389;50.126;8.450;2023-02-28T16:42:28;4.60;92.00
29413;DHT22;16389;50.126;8.450;2023-02-28T16:44:55;4.60;92.30
29413;DHT22;16389;50.126;8.450;2023-02-28T16:47:21;4.50;92.70
29413;DHT22;16389;50.126;8.450;2023-02-28T16:49:47;4.40;93.10
29413;DHT22;16389;50.126;8.450;2023-02-28T16:52:14;4.30;93.10
29413;DHT22;16389;50.126;8.450;2023-02-28T16:54:41;4.30;92.90
29413;DHT22;16389;50.126;8.450;2023-02-28T16:57:14;4.20;93.10
29413;DHT22;16389;50.126;8.450;2023-02-28T16:59:42;4.10;93.50
29413;DHT22;16389;50.126;8.450;2023-02-28T17:02:12;3.90;93.50
29413;DHT22;16389;50.126;8.450;2023-02-28T17:04:39;3.90;93.60
29413;DHT22;16389;50.126;8.450;2023-02-28T17:07:06;3.80;94.00
29413;DHT22;16389;50.126;8.450;2023-02-28T17:09:33;3.80;94.20
29413;DHT22;16389;50.126;8.450;2023-02-28T17:11:59;3.70;94.50
29413;DHT22;16389;50.126;8.450;2023-02-28T17:14:25;3.70;94.10
29413;DHT22;16389;50.126;8.450;2023-02-28T17:16:50;3.60;94.30
29413;DHT22;16389;50.126;8.450;2023-02-28T17:19:16;3.50;94.50
29413;DHT22;16389;50.126;8.450;2023-02-28T17:21:43;3.50;94.70
29413;DHT22;16389;50.126;8.450;2023-02-28T17:24:09;3.40;94.20
29413;DHT22;16389;50.126;8.450;2023-02-28T17:26:42;3.40;94.80
29413;DHT22;16389;50.126;8.450;2023-02-28T17:29:16;3.30;95.00
29413;DHT22;16389;50.126;8.450;2023-02-28T17:31:42;3.20;95.50
29413;DHT22;16389;50.126;8.450;2023-02-28T17:34:07;3.20;95.40
29413;DHT22;16389;50.126;8.450;2023-02-28T17:36:34;3.10;95.20
29413;DHT22;16389;50.126;8.450;2023-02-28T17:39:01;3.10;95.90
29413;DHT22;16389;50.126;8.450;2023-02-28T17:41:26;3.10;95.80
29413;DHT22;16389;50.126;8.450;2023-02-28T17:43:52;3.00;96.20
29413;DHT22;16389;50.126;8.450;2023-02-28T17:46:23;3.00;96.30
29413;DHT22;16389;50.126;8.450;2023-02-28T17:48:51;2.90;95.90
29413;DHT22;16389;50.126;8.450;2023-02-28T17:51:19;2.90;96.40
29413;DHT22;16389;50.126;8.450;2023-02-28T17:53:45;2.90;96.90
29413;DHT22;16389;50.126;8.450;2023-02-28T17:56:13;2.80;97.10
29413;DHT22;16389;50.126;8.450;2023-02-28T17:58:40;2.70;96.90
29413;DHT22;16389;50.126;8.450;2023-02-28T18:01:06;2.70;97.40
29413;DHT22;16389;50.126;8.450;2023-02-28T18:03:33;2.70;97.00
29413;DHT22;16389;50.126;8.450;2023-02-28T18:05:59;2.70;97.30
29413;DHT22;16389;50.126;8.450;2023-02-28T18:08:24;2.60;97.60
29413;DHT22;16389;50.126;8.450;2023-02-28T18:10:51;2.60;98.00
29413;DHT22;16389;50.126;8.450;2023-02-28T18:13:17;2.50;98.00
29413;DHT22;16389;50.126;8.450;2023-02-28T18:15:43;2.50;97.80
29413;DHT22;16389;50.126;8.450;2023-02-28T18:18:08;2.50;97.70